createdAt,value
2023-11-22T00:02:19.155Z,19.50
2023-11-22T00:04:46.090Z,19.49
2023-11-22T00:07:13.067Z,19.47
2023-11-22T00:09:39.799Z,19.45
2023-11-22T00:12:07.499Z,19.42
2023-11-22T00:14:36.345Z,19.42
2023-11-22T00:17:03.454Z,19.41
2023-11-22T00:19:33.980Z,19.39
2023-11-22T00:22:00.732Z,19.37
2023-11-22T00:24:27.477Z,19.35
2023-11-22T00:26:54.240Z,19.33
2023-11-22T00:29:21.001Z,19.32
2023-11-22T00:31:47.818Z,19.30
2023-11-22T00:34:16.173Z,19.28
2023-11-22T00:36:44.873Z,19.27
2023-11-22T00:39:14.196Z,19.25
2023-11-22T00:41:41.010Z,19.24
2023-11-22T00:44:07.898Z,19.22
2023-11-22T00:46:34.595Z,19.21
2023-11-22T00:49:01.300Z,19.19
2023-11-22T00:51:28.242Z,19.17
2023-11-22T00:53:56.170Z,19.16
2023-11-22T00:56:22.913Z,19.15
2023-11-22T00:58:51.017Z,19.13
2023-11-22T01:01:19.345Z,19.11
2023-11-22T01:03:46.091Z,19.10
2023-11-22T01:06:13.777Z,19.08
2023-11-22T01:08:40.557Z,19.06
2023-11-22T01:11:07.254Z,19.05
2023-11-22T01:13:34.001Z,19.02
2023-11-22T01:16:00.627Z,19.02
2023-11-22T01:18:28.495Z,19.00
2023-11-22T01:20:55.322Z,18.98
2023-11-22T01:23:22.028Z,18.98
2023-11-22T01:25:48.873Z,18.95
2023-11-22T01:28:15.588Z,18.92
2023-11-22T01:30:42.266Z,18.92
2023-11-22T01:33:08.942Z,18.91
2023-11-22T01:35:35.656Z,18.89
2023-11-22T01:38:05.382Z,18.88
2023-11-22T01:40:32.872Z,18.86
2023-11-22T01:43:00.063Z,18.83
2023-11-22T01:45:27.562Z,18.83
2023-11-22T01:47:54.393Z,18.81
2023-11-22T01:50:21.251Z,18.80
2023-11-22T01:52:47.944Z,18.81
2023-11-22T01:55:15.401Z,18.85
2023-11-22T01:57:42.131Z,18.93
2023-11-22T02:00:09.379Z,19.05
2023-11-22T02:02:36.278Z,19.17
2023-11-22T02:05:03.566Z,19.29
2023-11-22T02:07:30.219Z,19.43
2023-11-22T02:09:57.047Z,19.59
2023-11-22T02:12:23.772Z,19.75
2023-11-22T02:14:50.675Z,19.93
2023-11-22T02:17:18.226Z,20.16
2023-11-22T02:19:45.039Z,20.36
2023-11-22T02:22:12.227Z,20.53
2023-11-22T02:24:38.921Z,20.65
2023-11-22T02:27:05.625Z,20.78
2023-11-22T02:29:32.473Z,20.87
2023-11-22T02:31:59.264Z,20.94
2023-11-22T02:34:26.669Z,21.00
2023-11-22T02:37:01.222Z,21.05
2023-11-22T02:39:37.167Z,21.07
2023-11-22T02:42:05.063Z,21.11
2023-11-22T02:44:31.900Z,21.12
2023-11-22T02:46:58.893Z,21.16
2023-11-22T02:49:25.688Z,21.19
2023-11-22T02:51:52.345Z,21.20
2023-11-22T02:54:19.084Z,21.21
2023-11-22T02:56:46.171Z,21.22
2023-11-22T02:59:14.608Z,21.23
2023-11-22T03:01:46.418Z,21.24
2023-11-22T03:04:15.767Z,21.25
2023-11-22T03:06:42.496Z,21.26
2023-11-22T03:09:09.709Z,21.29
2023-11-22T03:11:37.295Z,21.30
2023-11-22T03:14:05.005Z,21.29
2023-11-22T03:16:31.955Z,21.30
2023-11-22T03:18:59.427Z,21.31
2023-11-22T03:21:29.032Z,21.31
2023-11-22T03:23:55.769Z,21.32
2023-11-22T03:26:22.461Z,21.34
2023-11-22T03:28:49.166Z,21.35
2023-11-22T03:31:18.435Z,21.35
2023-11-22T03:33:45.124Z,21.37
2023-11-22T03:36:12.329Z,21.37
2023-11-22T03:38:40.889Z,21.38
2023-11-22T03:41:07.617Z,21.38
2023-11-22T03:43:34.293Z,21.40
2023-11-22T03:46:00.995Z,21.41
2023-11-22T03:48:27.869Z,21.42
2023-11-22T03:50:54.626Z,21.40
2023-11-22T03:53:23.026Z,21.41
2023-11-22T03:55:53.696Z,21.44
2023-11-22T03:58:20.463Z,21.47
2023-11-22T04:00:47.556Z,21.51
2023-11-22T04:03:14.438Z,21.54
2023-11-22T04:05:41.798Z,21.56
2023-11-22T04:08:09.744Z,21.58
2023-11-22T04:10:36.600Z,21.60
2023-11-22T04:13:03.428Z,21.63
2023-11-22T04:15:30.886Z,21.64
2023-11-22T04:17:58.099Z,21.65
2023-11-22T04:20:25.171Z,21.62
2023-11-22T04:22:52.259Z,21.60
2023-11-22T04:25:19.283Z,21.57
2023-11-22T04:27:46.028Z,21.53
2023-11-22T04:30:18.357Z,21.50
2023-11-22T04:32:45.742Z,21.44
2023-11-22T04:35:13.300Z,21.39
2023-11-22T04:37:40.135Z,21.33
2023-11-22T04:40:12.514Z,21.29
2023-11-22T04:42:39.384Z,21.23
2023-11-22T04:45:07.320Z,21.17
2023-11-22T04:47:36.051Z,21.13
2023-11-22T04:50:05.502Z,21.08
2023-11-22T04:52:33.268Z,21.02
2023-11-22T04:54:59.987Z,20.97
2023-11-22T04:57:27.154Z,20.91
2023-11-22T04:59:54.629Z,20.86
2023-11-22T05:02:21.702Z,20.82
2023-11-22T05:04:53.551Z,20.78
2023-11-22T05:07:20.380Z,20.71
2023-11-22T05:09:47.118Z,20.65
2023-11-22T05:12:13.921Z,20.59
2023-11-22T05:14:40.810Z,20.55
2023-11-22T05:17:07.491Z,20.49
2023-11-22T05:19:34.198Z,20.44
2023-11-22T05:22:00.951Z,20.38
2023-11-22T05:24:27.670Z,20.33
2023-11-22T05:26:54.286Z,20.27
2023-11-22T05:29:21.149Z,20.23
2023-11-22T05:31:47.864Z,20.19
2023-11-22T05:34:14.613Z,20.15
2023-11-22T05:36:41.683Z,20.12
2023-11-22T05:39:10.579Z,20.09
2023-11-22T05:41:37.312Z,20.05
2023-11-22T05:44:04.201Z,20.01
2023-11-22T05:46:31.080Z,19.98
2023-11-22T05:48:57.719Z,19.94
2023-11-22T05:51:24.419Z,19.90
2023-11-22T05:53:51.179Z,19.87
2023-11-22T05:56:18.174Z,19.84
2023-11-22T05:58:44.937Z,19.79
2023-11-22T06:01:13.383Z,19.78
2023-11-22T06:03:40.319Z,19.75
2023-11-22T06:06:07.921Z,19.72
2023-11-22T06:08:34.703Z,19.69
2023-11-22T06:11:01.529Z,19.67
2023-11-22T06:13:28.715Z,19.66
2023-11-22T06:15:58.183Z,19.64
2023-11-22T06:18:30.807Z,19.64
2023-11-22T06:20:57.978Z,19.66
2023-11-22T06:23:24.722Z,19.75
2023-11-22T06:25:51.570Z,19.86
2023-11-22T06:28:18.979Z,20.00
2023-11-22T06:30:45.633Z,20.18
2023-11-22T06:33:12.310Z,20.31
2023-11-22T06:35:39.114Z,20.45
2023-11-22T06:38:05.848Z,20.64
2023-11-22T06:40:32.716Z,20.84
2023-11-22T06:42:59.331Z,21.07
2023-11-22T06:45:26.460Z,21.30
2023-11-22T06:47:53.990Z,21.55
2023-11-22T06:50:22.052Z,21.80
2023-11-22T06:52:51.013Z,22.02
2023-11-22T06:55:18.634Z,22.16
2023-11-22T06:57:45.403Z,22.29
2023-11-22T07:00:13.565Z,22.38
2023-11-22T07:02:40.775Z,22.48
2023-11-22T07:05:10.932Z,22.56
2023-11-22T07:07:37.935Z,22.62
2023-11-22T07:10:06.583Z,22.71
2023-11-22T07:12:36.348Z,22.81
2023-11-22T07:15:04.135Z,22.89
2023-11-22T07:17:31.141Z,22.96
2023-11-22T07:19:58.510Z,22.98
2023-11-22T07:22:25.342Z,22.98
2023-11-22T07:24:58.163Z,22.96
2023-11-22T07:27:27.051Z,22.92
2023-11-22T07:29:53.777Z,22.96
2023-11-22T07:32:21.893Z,23.00
2023-11-22T07:34:48.608Z,23.04
2023-11-22T07:37:16.189Z,23.10
2023-11-22T07:39:44.847Z,23.13
2023-11-22T07:42:11.533Z,23.13
2023-11-22T07:44:39.396Z,23.12
2023-11-22T07:47:10.938Z,23.13
2023-11-22T07:49:40.655Z,23.16
2023-11-22T07:52:08.050Z,23.15
2023-11-22T07:54:36.674Z,23.10
2023-11-22T07:57:03.528Z,23.07
2023-11-22T07:59:30.495Z,23.12
2023-11-22T08:01:58.545Z,23.20
2023-11-22T08:04:26.130Z,23.23
2023-11-22T08:06:53.461Z,23.25
2023-11-22T08:09:20.955Z,23.31
2023-11-22T08:11:47.628Z,23.35
2023-11-22T08:14:15.434Z,23.38
2023-11-22T08:16:44.209Z,23.38
2023-11-22T08:19:11.055Z,23.37
2023-11-22T08:21:37.950Z,23.32
2023-11-22T08:24:04.820Z,23.23
2023-11-22T08:26:32.231Z,23.18
2023-11-22T08:28:58.887Z,23.09
2023-11-22T08:31:25.513Z,22.99
2023-11-22T08:33:52.177Z,22.94
2023-11-22T08:36:19.838Z,22.87
2023-11-22T08:38:47.336Z,22.81
2023-11-22T08:41:15.122Z,22.74
2023-11-22T08:43:42.583Z,22.66
2023-11-22T08:46:14.247Z,22.58
2023-11-22T08:48:45.141Z,22.48
2023-11-22T08:51:13.001Z,22.40
2023-11-22T08:53:39.985Z,22.34
2023-11-22T08:56:06.924Z,22.26
2023-11-22T08:58:35.010Z,22.20
2023-11-22T09:01:02.030Z,22.16
2023-11-22T09:03:30.193Z,22.14
2023-11-22T09:05:57.168Z,22.10
2023-11-22T09:08:26.698Z,22.05
2023-11-22T09:10:55.611Z,21.96
2023-11-22T09:13:23.592Z,21.91
2023-11-22T09:15:51.095Z,21.84
2023-11-22T09:18:17.984Z,21.81
2023-11-22T09:20:45.733Z,21.80
2023-11-22T09:23:12.860Z,21.78
2023-11-22T09:25:40.315Z,21.75
2023-11-22T09:28:08.577Z,21.72
2023-11-22T09:30:43.693Z,21.71
2023-11-22T09:33:12.572Z,21.68
2023-11-22T09:35:40.655Z,21.67
2023-11-22T09:38:13.421Z,21.58
2023-11-22T09:40:47.373Z,21.48
2023-11-22T09:43:18.433Z,21.39
2023-11-22T09:45:46.289Z,21.30
2023-11-22T09:48:19.403Z,21.24
2023-11-22T09:50:59.513Z,21.17
2023-11-22T09:53:34.285Z,21.12
2023-11-22T09:56:03.885Z,21.09
2023-11-22T09:58:31.374Z,21.04
2023-11-22T10:00:58.080Z,20.96
2023-11-22T10:03:27.128Z,20.99
2023-11-22T10:06:07.214Z,21.02
2023-11-22T10:08:34.343Z,21.02
2023-11-22T10:11:01.158Z,21.05
2023-11-22T10:13:27.938Z,21.02
2023-11-22T10:15:54.766Z,21.02
2023-11-22T10:18:21.710Z,21.01
2023-11-22T10:20:50.461Z,21.05
2023-11-22T10:23:20.916Z,21.13
2023-11-22T10:25:52.738Z,21.23
2023-11-22T10:28:25.140Z,21.35
2023-11-22T10:30:57.135Z,21.46
2023-11-22T10:33:25.023Z,21.59
2023-11-22T10:35:55.185Z,21.71
2023-11-22T10:38:22.000Z,21.92
2023-11-22T10:40:49.320Z,22.15
2023-11-22T10:43:16.841Z,22.40
2023-11-22T10:45:50.206Z,22.67
2023-11-22T10:48:22.064Z,22.87
2023-11-22T10:50:49.080Z,23.02
2023-11-22T10:53:23.643Z,23.16
2023-11-22T10:55:50.402Z,23.25
2023-11-22T10:58:18.151Z,23.30
2023-11-22T11:00:45.311Z,23.37
2023-11-22T11:03:16.665Z,23.45
2023-11-22T11:05:54.287Z,23.47
2023-11-22T11:08:21.503Z,23.52
2023-11-22T11:10:50.791Z,23.56
2023-11-22T11:13:18.885Z,23.59
2023-11-22T11:15:46.724Z,23.63
2023-11-22T11:18:16.445Z,23.69
2023-11-22T11:20:53.925Z,23.72
2023-11-22T11:23:21.258Z,23.76
2023-11-22T11:25:51.543Z,23.82
2023-11-22T11:28:19.038Z,23.84
2023-11-22T11:30:47.268Z,23.87
2023-11-22T11:33:18.269Z,23.91
2023-11-22T11:35:49.840Z,23.93
2023-11-22T11:38:18.405Z,23.92
2023-11-22T11:40:46.876Z,23.94
2023-11-22T11:43:16.366Z,23.96
2023-11-22T11:45:49.346Z,24.01
2023-11-22T11:48:19.543Z,24.02
2023-11-22T11:50:47.404Z,24.02
2023-11-22T11:53:14.292Z,24.04
2023-11-22T11:55:41.237Z,24.04
2023-11-22T11:58:10.458Z,24.03
2023-11-22T12:00:42.606Z,24.01
2023-11-22T12:03:12.240Z,24.02
2023-11-22T12:05:39.738Z,24.00
2023-11-22T12:08:06.603Z,24.00
2023-11-22T12:10:33.423Z,23.96
2023-11-22T12:13:00.067Z,23.84
2023-11-22T12:15:26.883Z,23.71
2023-11-22T12:17:55.605Z,23.59
2023-11-22T12:20:23.406Z,23.44
2023-11-22T12:22:50.191Z,23.31
2023-11-22T12:25:17.092Z,23.22
2023-11-22T12:27:44.402Z,23.19
2023-11-22T12:30:12.534Z,23.16
2023-11-22T12:32:42.675Z,23.10
2023-11-22T12:35:09.560Z,23.05
2023-11-22T12:37:36.345Z,23.00
2023-11-22T12:40:12.192Z,22.95
2023-11-22T12:42:51.777Z,22.87
2023-11-22T12:45:25.659Z,22.79
2023-11-22T12:47:52.982Z,22.77
2023-11-22T12:50:41.805Z,22.72
2023-11-22T12:53:10.399Z,22.66
2023-11-22T12:55:37.978Z,22.56
2023-11-22T12:58:04.753Z,22.48
2023-11-22T13:00:31.585Z,22.44
2023-11-22T13:03:03.691Z,22.40
2023-11-22T13:05:31.414Z,22.32
2023-11-22T13:07:59.709Z,22.26
2023-11-22T13:10:27.277Z,22.20
2023-11-22T13:12:55.176Z,22.15
2023-11-22T13:15:24.478Z,22.12
2023-11-22T13:17:56.335Z,22.08
2023-11-22T13:20:24.419Z,22.03
2023-11-22T13:22:51.537Z,21.95
2023-11-22T13:25:20.148Z,21.90
2023-11-22T13:27:49.883Z,21.84
2023-11-22T13:30:18.945Z,21.81
2023-11-22T13:32:45.696Z,21.77
2023-11-22T13:35:16.142Z,21.77
2023-11-22T13:37:46.227Z,21.72
2023-11-22T13:40:18.688Z,21.71
2023-11-22T13:42:46.292Z,21.68
2023-11-22T13:45:16.704Z,21.58
2023-11-22T13:47:48.451Z,21.54
2023-11-22T13:50:20.072Z,21.52
2023-11-22T13:52:47.809Z,21.45
2023-11-22T13:55:14.575Z,21.41
2023-11-22T13:57:43.116Z,21.37
2023-11-22T14:00:36.451Z,21.32
2023-11-22T14:03:13.094Z,21.29
2023-11-22T14:05:40.436Z,21.26
2023-11-22T14:08:10.090Z,21.25
2023-11-22T14:10:39.593Z,21.23
2023-11-22T14:13:07.324Z,21.19
2023-11-22T14:15:42.930Z,21.17
2023-11-22T14:18:09.688Z,21.16
2023-11-22T14:20:36.702Z,21.16
2023-11-22T14:23:03.635Z,21.20
2023-11-22T14:25:30.485Z,21.22
2023-11-22T14:27:58.406Z,21.30
2023-11-22T14:30:26.992Z,21.39
2023-11-22T14:32:54.358Z,21.50
2023-11-22T14:35:21.186Z,21.58
2023-11-22T14:37:48.513Z,21.70
2023-11-22T14:40:15.370Z,21.86
2023-11-22T14:42:43.023Z,22.07
2023-11-22T14:45:10.555Z,22.27
2023-11-22T14:47:37.768Z,22.46
2023-11-22T14:50:07.661Z,22.59
2023-11-22T14:52:34.552Z,22.72
2023-11-22T14:55:01.827Z,22.82
2023-11-22T14:57:28.553Z,22.88
2023-11-22T14:59:55.633Z,22.93
2023-11-22T15:02:22.893Z,22.98
2023-11-22T15:04:49.624Z,23.03
2023-11-22T15:07:16.298Z,23.05
2023-11-22T15:09:43.188Z,23.06
2023-11-22T15:12:12.948Z,23.09
2023-11-22T15:14:40.996Z,23.13
2023-11-22T15:17:08.725Z,23.16
2023-11-22T15:19:39.020Z,23.17
2023-11-22T15:22:07.105Z,23.20
2023-11-22T15:24:34.381Z,23.22
2023-11-22T15:27:01.068Z,23.24
2023-11-22T15:29:27.776Z,23.26
2023-11-22T15:31:55.518Z,23.28
2023-11-22T15:34:22.810Z,23.30
2023-11-22T15:36:49.508Z,23.32
2023-11-22T15:39:23.083Z,23.34
2023-11-22T15:41:49.847Z,23.36
2023-11-22T15:44:16.976Z,23.37
2023-11-22T15:46:43.919Z,23.37
2023-11-22T15:49:13.861Z,23.39
2023-11-22T15:51:40.882Z,23.38
2023-11-22T15:54:11.283Z,23.40
2023-11-22T15:56:38.095Z,23.41
2023-11-22T15:59:05.034Z,23.43
2023-11-22T16:01:32.610Z,23.44
2023-11-22T16:03:59.569Z,23.44
2023-11-22T16:06:29.173Z,23.44
2023-11-22T16:08:57.052Z,23.45
2023-11-22T16:11:24.209Z,23.46
2023-11-22T16:13:51.553Z,23.47
2023-11-22T16:16:19.393Z,23.47
2023-11-22T16:18:46.344Z,23.49
2023-11-22T16:21:14.249Z,23.45
2023-11-22T16:23:40.966Z,23.40
2023-11-22T16:26:07.790Z,23.34
2023-11-22T16:28:35.400Z,23.25
2023-11-22T16:31:03.953Z,23.17
2023-11-22T16:33:31.039Z,23.10
2023-11-22T16:35:57.876Z,23.02
2023-11-22T16:38:25.108Z,22.92
2023-11-22T16:40:54.151Z,22.85
2023-11-22T16:43:21.604Z,22.76
2023-11-22T16:45:50.051Z,22.67
2023-11-22T16:48:16.882Z,22.59
2023-11-22T16:50:43.933Z,22.51
2023-11-22T16:53:12.279Z,22.42
2023-11-22T16:55:39.850Z,22.33
2023-11-22T16:58:07.200Z,22.27
2023-11-22T17:00:34.217Z,22.19
2023-11-22T17:03:01.975Z,22.13
2023-11-22T17:05:28.922Z,22.07
2023-11-22T17:07:58.076Z,22.02
2023-11-22T17:10:44.925Z,21.96
2023-11-22T17:13:12.637Z,21.92
2023-11-22T17:15:41.247Z,21.85
2023-11-22T17:18:08.665Z,21.81
2023-11-22T17:20:35.864Z,21.75
2023-11-22T17:23:02.552Z,21.69
2023-11-22T17:25:31.398Z,21.64
2023-11-22T17:27:58.060Z,21.58
2023-11-22T17:30:29.766Z,21.54
2023-11-22T17:32:56.649Z,21.50
2023-11-22T17:35:25.251Z,21.45
2023-11-22T17:37:55.281Z,21.42
2023-11-22T17:40:22.062Z,21.37
2023-11-22T17:42:48.778Z,21.33
2023-11-22T17:45:16.543Z,21.29
2023-11-22T17:47:44.431Z,21.24
2023-11-22T17:50:12.309Z,21.21
2023-11-22T17:52:39.094Z,21.16
2023-11-22T17:55:06.300Z,21.11
2023-11-22T17:57:33.515Z,21.07
2023-11-22T18:00:00.697Z,21.02
2023-11-22T18:02:27.699Z,20.96
2023-11-22T18:04:54.478Z,20.91
2023-11-22T18:07:22.436Z,20.86
2023-11-22T18:09:49.807Z,20.81
2023-11-22T18:12:16.775Z,20.76
2023-11-22T18:14:45.648Z,20.73
2023-11-22T18:17:12.771Z,20.68
2023-11-22T18:19:39.726Z,20.63
2023-11-22T18:22:06.420Z,20.63
2023-11-22T18:24:33.979Z,20.67
2023-11-22T18:27:01.032Z,20.75
2023-11-22T18:29:28.956Z,20.85
2023-11-22T18:32:00.132Z,20.97
2023-11-22T18:34:33.164Z,21.10
2023-11-22T18:37:01.324Z,21.20
2023-11-22T18:39:29.175Z,21.35
2023-11-22T18:41:55.926Z,21.54
2023-11-22T18:44:22.678Z,21.75
2023-11-22T18:46:49.899Z,21.95
2023-11-22T18:49:16.736Z,22.15
2023-11-22T18:51:44.026Z,22.30
2023-11-22T18:54:11.945Z,22.43
2023-11-22T18:56:40.740Z,22.53
2023-11-22T18:59:08.094Z,22.60
2023-11-22T19:01:35.840Z,22.66
2023-11-22T19:04:02.704Z,22.69
2023-11-22T19:06:29.379Z,22.72
2023-11-22T19:08:55.987Z,22.74
2023-11-22T19:11:22.661Z,22.77
2023-11-22T19:13:50.673Z,22.81
2023-11-22T19:16:17.527Z,22.85
2023-11-22T19:18:44.410Z,22.88
2023-11-22T19:21:11.390Z,22.88
2023-11-22T19:23:38.848Z,22.85
2023-11-22T19:26:05.960Z,22.81
2023-11-22T19:28:33.013Z,22.74
2023-11-22T19:31:00.395Z,22.68
2023-11-22T19:33:27.188Z,22.63
2023-11-22T19:35:54.122Z,22.55
2023-11-22T19:38:22.143Z,22.49
2023-11-22T19:40:49.050Z,22.41
2023-11-22T19:43:17.140Z,22.34
2023-11-22T19:45:44.740Z,22.27
2023-11-22T19:48:11.896Z,22.21
2023-11-22T19:50:38.815Z,22.13
2023-11-22T19:53:05.559Z,22.05
2023-11-22T19:55:34.512Z,22.01
2023-11-22T19:58:02.279Z,21.96
2023-11-22T20:00:29.212Z,21.91
2023-11-22T20:02:56.133Z,21.88
2023-11-22T20:05:22.906Z,21.86
2023-11-22T20:07:49.738Z,21.83
2023-11-22T20:10:16.911Z,21.83
2023-11-22T20:12:43.947Z,21.81
2023-11-22T20:15:11.013Z,21.81
2023-11-22T20:17:37.987Z,21.82
2023-11-22T20:20:07.979Z,21.80
2023-11-22T20:22:34.911Z,21.80
2023-11-22T20:25:04.137Z,21.80
2023-11-22T20:27:30.800Z,21.80
2023-11-22T20:29:57.583Z,21.78
2023-11-22T20:32:26.355Z,21.79
2023-11-22T20:34:53.236Z,21.77
2023-11-22T20:37:19.988Z,21.77
2023-11-22T20:39:46.741Z,21.76
2023-11-22T20:42:13.403Z,21.77
2023-11-22T20:44:40.273Z,21.76
2023-11-22T20:47:06.969Z,21.75
2023-11-22T20:49:33.951Z,21.75
2023-11-22T20:52:00.943Z,21.75
2023-11-22T20:54:27.600Z,21.73
2023-11-22T20:56:54.436Z,21.73
2023-11-22T20:59:21.155Z,21.73
2023-11-22T21:01:48.017Z,21.73
2023-11-22T21:04:15.008Z,21.72
2023-11-22T21:06:42.473Z,21.72
2023-11-22T21:09:09.653Z,21.71
2023-11-22T21:11:42.957Z,21.71
2023-11-22T21:14:17.587Z,21.71
2023-11-22T21:16:44.674Z,21.70
2023-11-22T21:19:12.757Z,21.72
2023-11-22T21:21:42.287Z,21.70
2023-11-22T21:24:09.897Z,21.70
2023-11-22T21:26:36.609Z,21.70
2023-11-22T21:29:03.415Z,21.69
2023-11-22T21:31:30.058Z,21.69
2023-11-22T21:33:56.866Z,21.68
2023-11-22T21:36:23.663Z,21.67
2023-11-22T21:38:50.550Z,21.68
2023-11-22T21:41:17.325Z,21.67
2023-11-22T21:43:46.832Z,21.66
2023-11-22T21:46:20.194Z,21.66
2023-11-22T21:48:49.668Z,21.66
2023-11-22T21:51:16.391Z,21.66
2023-11-22T21:53:43.139Z,21.65
2023-11-22T21:56:09.962Z,21.63
2023-11-22T21:58:36.867Z,21.65
2023-11-22T22:01:03.706Z,21.64
2023-11-22T22:03:30.552Z,21.64
2023-11-22T22:05:57.383Z,21.62
2023-11-22T22:08:24.633Z,21.62
2023-11-22T22:10:51.699Z,21.63
2023-11-22T22:13:21.048Z,21.62
2023-11-22T22:15:47.953Z,21.62
2023-11-22T22:18:14.920Z,21.64
2023-11-22T22:20:51.392Z,21.63
2023-11-22T22:23:22.430Z,21.62
2023-11-22T22:25:49.054Z,21.62
2023-11-22T22:28:16.123Z,21.62
2023-11-22T22:30:42.858Z,21.61
2023-11-22T22:33:12.287Z,21.61
2023-11-22T22:35:39.476Z,21.61
2023-11-22T22:38:06.304Z,21.60
2023-11-22T22:40:34.398Z,21.61
2023-11-22T22:43:01.160Z,21.62
2023-11-22T22:45:27.860Z,21.63
2023-11-22T22:47:55.012Z,21.63
2023-11-22T22:50:23.168Z,21.65
2023-11-22T22:52:50.234Z,21.67
2023-11-22T22:55:17.062Z,21.67
2023-11-22T22:57:44.353Z,21.68
2023-11-22T23:00:23.986Z,21.69
2023-11-22T23:02:50.917Z,21.68
2023-11-22T23:05:24.470Z,21.70
2023-11-22T23:07:53.257Z,21.70
2023-11-22T23:10:20.161Z,21.70
2023-11-22T23:12:46.906Z,21.71
2023-11-22T23:15:13.605Z,21.72
2023-11-22T23:17:40.909Z,21.72
2023-11-22T23:20:14.789Z,21.72
2023-11-22T23:22:44.507Z,21.72
2023-11-22T23:25:14.188Z,21.72
2023-11-22T23:27:40.868Z,21.71
2023-11-22T23:30:12.158Z,21.73
2023-11-22T23:32:39.868Z,21.73
2023-11-22T23:35:07.897Z,21.74
2023-11-22T23:37:34.596Z,21.73
2023-11-22T23:40:10.437Z,21.73
2023-11-22T23:42:40.608Z,21.75
2023-11-22T23:45:09.508Z,21.77
2023-11-22T23:47:36.363Z,21.77
2023-11-22T23:50:04.952Z,21.76
2023-11-22T23:52:31.902Z,21.76
2023-11-22T23:54:59.070Z,21.75
2023-11-22T23:57:26.118Z,21.75
2023-11-22T23:59:53.021Z,21.76
